AirportLTBA
Updated 22:20 UTC
Current time 22:35 UTC
Taken 15 min. ago
Wind 340° / 4 m/s (08 KT)
Visibility more then 10 km
Clouds CAVOK
Temp. 22°C (72°F)
Dew point 19°C (66°F)
Humidity 83%
Pressure 1011 hPa (29.85 in Hg)
Full Metar Code:
LTBA 262220Z 34008KT CAVOK 22/19 Q1011 NOSIG